sensor_id;sensor_type;location;lat;lon;timestamp;pressure;altitude;pressure_sealevel;temperature;humidity
23172;BME280;11754;42.664;23.594;2024-02-21T00:00:39;96061.28;;;6.73;80.82
23172;BME280;11754;42.664;23.594;2024-02-21T00:03:05;96049.72;;;6.76;81.21
23172;BME280;11754;42.664;23.594;2024-02-21T00:05:31;96061.28;;;6.94;80.53
23172;BME280;11754;42.664;23.594;2024-02-21T00:07:59;96058.16;;;7.01;80.39
23172;BME280;11754;42.664;23.594;2024-02-21T00:10:24;96061.91;;;7.08;79.91
23172;BME280;11754;42.664;23.594;2024-02-21T00:12:50;96060.88;;;6.99;80.19
23172;BME280;11754;42.664;23.594;2024-02-21T00:15:16;96059.88;;;6.90;80.33
23172;BME280;11754;42.664;23.594;2024-02-21T00:17:43;96057.56;;;6.97;80.14
23172;BME280;11754;42.664;23.594;2024-02-21T00:20:09;96054.59;;;7.11;79.47
23172;BME280;11754;42.664;23.594;2024-02-21T00:22:35;96053.16;;;6.97;80.11
23172;BME280;11754;42.664;23.594;2024-02-21T00:25:01;96049.16;;;7.03;80.11
23172;BME280;11754;42.664;23.594;2024-02-21T00:27:26;96045.47;;;7.06;79.36
23172;BME280;11754;42.664;23.594;2024-02-21T00:29:51;96044.94;;;7.12;79.13
23172;BME280;11754;42.664;23.594;2024-02-21T00:32:17;96047.91;;;6.97;79.39
23172;BME280;11754;42.664;23.594;2024-02-21T00:34:43;96049.81;;;6.95;79.44
23172;BME280;11754;42.664;23.594;2024-02-21T00:37:09;96044.88;;;7.02;79.33
23172;BME280;11754;42.664;23.594;2024-02-21T00:53:01;96039.91;;;6.99;78.64
23172;BME280;11754;42.664;23.594;2024-02-21T00:55:27;96044.31;;;6.98;78.37
23172;BME280;11754;42.664;23.594;2024-02-21T00:57:52;96033.78;;;6.89;78.97
23172;BME280;11754;42.664;23.594;2024-02-21T01:00:18;96041.78;;;6.87;78.83
23172;BME280;11754;42.664;23.594;2024-02-21T01:02:48;96031.22;;;6.78;79.48
23172;BME280;11754;42.664;23.594;2024-02-21T01:05:14;96037.63;;;6.85;78.99
23172;BME280;11754;42.664;23.594;2024-02-21T01:07:39;96031.00;;;7.11;78.81
23172;BME280;11754;42.664;23.594;2024-02-21T01:10:05;96038.31;;;7.08;78.33
23172;BME280;11754;42.664;23.594;2024-02-21T01:12:31;96020.38;;;7.13;78.08
23172;BME280;11754;42.664;23.594;2024-02-21T01:14:56;96023.44;;;7.18;78.42
23172;BME280;11754;42.664;23.594;2024-02-21T01:17:22;96016.66;;;7.15;78.16
23172;BME280;11754;42.664;23.594;2024-02-21T01:23:09;96002.81;;;7.13;77.75
23172;BME280;11754;42.664;23.594;2024-02-21T01:25:34;96012.28;;;7.26;77.42
23172;BME280;11754;42.664;23.594;2024-02-21T01:27:59;96015.44;;;7.19;77.43
23172;BME280;11754;42.664;23.594;2024-02-21T01:30:25;96019.41;;;6.83;78.18
23172;BME280;11754;42.664;23.594;2024-02-21T01:32:50;96008.53;;;6.67;79.34
23172;BME280;11754;42.664;23.594;2024-02-21T01:35:15;96011.75;;;6.49;80.40
23172;BME280;11754;42.664;23.594;2024-02-21T01:37:41;96008.91;;;6.41;80.62
23172;BME280;11754;42.664;23.594;2024-02-21T01:40:07;96014.16;;;6.41;80.99
23172;BME280;11754;42.664;23.594;2024-02-21T01:42:32;96013.00;;;6.34;81.35
23172;BME280;11754;42.664;23.594;2024-02-21T01:44:58;96011.28;;;6.44;80.91
23172;BME280;11754;42.664;23.594;2024-02-21T01:47:23;95999.22;;;6.32;81.37
23172;BME280;11754;42.664;23.594;2024-02-21T01:49:49;95993.47;;;6.38;81.51
23172;BME280;11754;42.664;23.594;2024-02-21T01:52:16;95999.72;;;6.26;81.76
23172;BME280;11754;42.664;23.594;2024-02-21T01:54:43;96000.41;;;6.07;82.27
23172;BME280;11754;42.664;23.594;2024-02-21T01:57:08;96011.00;;;6.06;82.66
23172;BME280;11754;42.664;23.594;2024-02-21T01:59:34;96013.66;;;5.94;82.65
23172;BME280;11754;42.664;23.594;2024-02-21T02:02:02;96011.28;;;6.23;82.16
23172;BME280;11754;42.664;23.594;2024-02-21T02:04:27;95978.69;;;6.37;81.09
23172;BME280;11754;42.664;23.594;2024-02-21T02:06:54;96002.59;;;6.65;79.76
23172;BME280;11754;42.664;23.594;2024-02-21T02:09:20;96006.69;;;6.79;79.15
23172;BME280;11754;42.664;23.594;2024-02-21T02:11:45;96013.00;;;6.76;79.15
23172;BME280;11754;42.664;23.594;2024-02-21T02:14:10;96011.09;;;6.78;78.94
23172;BME280;11754;42.664;23.594;2024-02-21T02:16:36;95997.28;;;6.76;78.68
23172;BME280;11754;42.664;23.594;2024-02-21T02:19:01;95997.34;;;6.86;78.87
23172;BME280;11754;42.664;23.594;2024-02-21T02:21:29;96002.59;;;6.95;78.13
23172;BME280;11754;42.664;23.594;2024-02-21T02:23:56;96002.59;;;6.95;77.80
23172;BME280;11754;42.664;23.594;2024-02-21T02:26:22;95998.16;;;6.86;78.06
23172;BME280;11754;42.664;23.594;2024-02-21T02:28:47;95996.22;;;6.88;77.95
23172;BME280;11754;42.664;23.594;2024-02-21T02:34:53;96001.78;;;6.95;77.76
23172;BME280;11754;42.664;23.594;2024-02-21T02:37:56;95999.63;;;7.10;77.24
23172;BME280;11754;42.664;23.594;2024-02-21T02:40:41;95991.59;;;7.02;77.04
23172;BME280;11754;42.664;23.594;2024-02-21T02:43:06;96003.47;;;6.96;77.21
23172;BME280;11754;42.664;23.594;2024-02-21T02:45:32;96000.19;;;7.04;77.25
23172;BME280;11754;42.664;23.594;2024-02-21T02:47:58;95991.91;;;7.08;76.44
23172;BME280;11754;42.664;23.594;2024-02-21T02:50:25;95987.16;;;6.92;76.59
23172;BME280;11754;42.664;23.594;2024-02-21T02:52:50;95984.13;;;6.97;77.16
23172;BME280;11754;42.664;23.594;2024-02-21T02:55:16;95978.06;;;6.96;77.09
23172;BME280;11754;42.664;23.594;2024-02-21T02:57:42;95982.75;;;7.03;76.81
23172;BME280;11754;42.664;23.594;2024-02-21T03:00:08;95985.66;;;6.99;77.07
23172;BME280;11754;42.664;23.594;2024-02-21T03:02:35;95981.13;;;7.02;76.34
23172;BME280;11754;42.664;23.594;2024-02-21T03:05:00;95984.44;;;7.04;76.44
23172;BME280;11754;42.664;23.594;2024-02-21T03:07:26;95990.22;;;6.97;76.23
23172;BME280;11754;42.664;23.594;2024-02-21T03:09:51;95990.03;;;6.89;76.67
23172;BME280;11754;42.664;23.594;2024-02-21T03:12:18;96001.75;;;6.85;76.87
23172;BME280;11754;42.664;23.594;2024-02-21T03:14:50;96003.66;;;6.83;77.15
23172;BME280;11754;42.664;23.594;2024-02-21T03:17:15;96003.41;;;6.86;77.14
23172;BME280;11754;42.664;23.594;2024-02-21T03:19:41;95992.47;;;6.81;77.19
23172;BME280;11754;42.664;23.594;2024-02-21T03:22:06;96005.22;;;6.65;77.66
23172;BME280;11754;42.664;23.594;2024-02-21T03:24:33;96018.16;;;6.04;79.81
23172;BME280;11754;42.664;23.594;2024-02-21T03:26:58;96012.34;;;6.00;80.36
23172;BME280;11754;42.664;23.594;2024-02-21T03:29:24;96012.88;;;5.71;81.51
23172;BME280;11754;42.664;23.594;2024-02-21T03:31:50;96019.88;;;5.82;81.62
23172;BME280;11754;42.664;23.594;2024-02-21T03:34:15;96009.28;;;6.16;80.74
23172;BME280;11754;42.664;23.594;2024-02-21T03:36:40;96013.66;;;6.47;79.50
23172;BME280;11754;42.664;23.594;2024-02-21T03:39:06;96021.19;;;6.62;78.94
23172;BME280;11754;42.664;23.594;2024-02-21T03:41:33;96014.56;;;6.58;78.82
23172;BME280;11754;42.664;23.594;2024-02-21T03:43:58;96011.88;;;6.69;78.49
23172;BME280;11754;42.664;23.594;2024-02-21T03:46:24;96013.25;;;6.73;78.30
23172;BME280;11754;42.664;23.594;2024-02-21T03:48:50;96015.50;;;6.78;77.94
23172;BME280;11754;42.664;23.594;2024-02-21T03:51:15;96018.88;;;6.89;77.69
23172;BME280;11754;42.664;23.594;2024-02-21T03:53:41;96015.34;;;7.00;76.51
23172;BME280;11754;42.664;23.594;2024-02-21T03:56:06;96018.34;;;6.95;76.78
23172;BME280;11754;42.664;23.594;2024-02-21T03:58:32;96024.13;;;6.89;76.73
23172;BME280;11754;42.664;23.594;2024-02-21T04:01:01;96021.63;;;6.88;76.97
23172;BME280;11754;42.664;23.594;2024-02-21T04:03:27;96014.88;;;6.85;76.68
23172;BME280;11754;42.664;23.594;2024-02-21T04:12:48;96014.41;;;6.80;76.79
23172;BME280;11754;42.664;23.594;2024-02-21T04:15:16;96023.00;;;6.82;76.87
23172;BME280;11754;42.664;23.594;2024-02-21T04:17:41;96020.28;;;6.93;76.50
23172;BME280;11754;42.664;23.594;2024-02-21T04:20:16;96019.16;;;6.86;76.46
23172;BME280;11754;42.664;23.594;2024-02-21T04:22:44;96009.06;;;6.61;77.38
23172;BME280;11754;42.664;23.594;2024-02-21T04:35:14;96015.97;;;6.62;77.68
23172;BME280;11754;42.664;23.594;2024-02-21T04:37:40;96023.09;;;6.60;77.67
23172;BME280;11754;42.664;23.594;2024-02-21T04:40:06;96019.59;;;6.70;77.69
23172;BME280;11754;42.664;23.594;2024-02-21T04:42:31;96022.34;;;6.69;77.31
23172;BME280;11754;42.664;23.594;2024-02-21T04:44:57;96021.06;;;6.84;76.45
23172;BME280;11754;42.664;23.594;2024-02-21T04:47:22;96025.41;;;6.74;76.70
23172;BME280;11754;42.664;23.594;2024-02-21T04:49:50;96027.28;;;6.62;77.04
23172;BME280;11754;42.664;23.594;2024-02-21T04:52:15;96018.31;;;6.65;76.67
23172;BME280;11754;42.664;23.594;2024-02-21T05:01:29;96026.75;;;6.26;78.15
23172;BME280;11754;42.664;23.594;2024-02-21T05:03:54;96035.91;;;6.32;77.96
23172;BME280;11754;42.664;23.594;2024-02-21T05:06:20;96015.84;;;6.42;77.82
23172;BME280;11754;42.664;23.594;2024-02-21T05:08:45;96024.47;;;6.54;77.38
23172;BME280;11754;42.664;23.594;2024-02-21T05:11:11;96028.09;;;6.63;77.01
23172;BME280;11754;42.664;23.594;2024-02-21T05:13:36;96024.97;;;6.48;77.23
23172;BME280;11754;42.664;23.594;2024-02-21T05:16:01;96017.06;;;6.38;77.28
23172;BME280;11754;42.664;23.594;2024-02-21T05:18:28;96031.34;;;6.13;78.31
23172;BME280;11754;42.664;23.594;2024-02-21T05:20:53;96036.44;;;6.15;78.45
23172;BME280;11754;42.664;23.594;2024-02-21T05:23:19;96025.66;;;6.29;78.81
23172;BME280;11754;42.664;23.594;2024-02-21T05:25:44;96031.94;;;6.17;78.78
23172;BME280;11754;42.664;23.594;2024-02-21T05:28:10;96043.19;;;5.96;79.77
23172;BME280;11754;42.664;23.594;2024-02-21T05:30:35;96039.84;;;5.83;80.83
23172;BME280;11754;42.664;23.594;2024-02-21T05:33:05;96046.63;;;5.97;80.91
23172;BME280;11754;42.664;23.594;2024-02-21T05:35:30;96041.53;;;5.95;80.84
23172;BME280;11754;42.664;23.594;2024-02-21T05:37:56;96035.81;;;5.79;81.29
23172;BME280;11754;42.664;23.594;2024-02-21T05:40:21;96038.19;;;5.82;81.00
23172;BME280;11754;42.664;23.594;2024-02-21T05:42:47;96044.38;;;5.92;81.50
23172;BME280;11754;42.664;23.594;2024-02-21T05:45:12;96042.13;;;5.99;81.04
23172;BME280;11754;42.664;23.594;2024-02-21T05:47:38;96054.69;;;6.05;81.09
23172;BME280;11754;42.664;23.594;2024-02-21T05:50:04;96050.94;;;6.19;80.69
23172;BME280;11754;42.664;23.594;2024-02-21T05:52:30;96052.25;;;6.24;80.53
23172;BME280;11754;42.664;23.594;2024-02-21T05:54:55;96055.50;;;6.38;79.86
23172;BME280;11754;42.664;23.594;2024-02-21T05:57:21;96057.59;;;6.23;79.71
23172;BME280;11754;42.664;23.594;2024-02-21T05:59:46;96059.59;;;5.98;80.83
23172;BME280;11754;42.664;23.594;2024-02-21T06:08:55;96051.97;;;5.84;82.35
23172;BME280;11754;42.664;23.594;2024-02-21T06:11:21;96059.34;;;6.01;81.91
23172;BME280;11754;42.664;23.594;2024-02-21T06:13:46;96066.47;;;6.11;80.83
23172;BME280;11754;42.664;23.594;2024-02-21T06:16:11;96081.94;;;6.14;80.93
23172;BME280;11754;42.664;23.594;2024-02-21T06:18:37;96077.19;;;6.08;80.67
23172;BME280;11754;42.664;23.594;2024-02-21T06:21:03;96080.06;;;5.82;81.95
23172;BME280;11754;42.664;23.594;2024-02-21T06:23:29;96081.53;;;5.64;83.00
23172;BME280;11754;42.664;23.594;2024-02-21T06:25:54;96081.75;;;5.72;82.65
23172;BME280;11754;42.664;23.594;2024-02-21T06:28:20;96076.78;;;5.58;84.47
23172;BME280;11754;42.664;23.594;2024-02-21T06:30:45;96087.47;;;5.77;84.85
23172;BME280;11754;42.664;23.594;2024-02-21T06:33:11;96095.66;;;5.72;83.51
23172;BME280;11754;42.664;23.594;2024-02-21T06:35:36;96089.88;;;5.46;84.42
23172;BME280;11754;42.664;23.594;2024-02-21T06:38:03;96098.91;;;5.65;84.55
23172;BME280;11754;42.664;23.594;2024-02-21T06:40:29;96098.00;;;6.09;83.11
23172;BME280;11754;42.664;23.594;2024-02-21T06:42:56;96102.19;;;6.44;80.99
23172;BME280;11754;42.664;23.594;2024-02-21T06:45:22;96107.09;;;6.37;80.34
23172;BME280;11754;42.664;23.594;2024-02-21T06:47:47;96105.28;;;7.12;79.27
23172;BME280;11754;42.664;23.594;2024-02-21T07:03:38;96119.97;;;9.03;70.24
23172;BME280;11754;42.664;23.594;2024-02-21T07:06:04;96114.09;;;9.19;69.55
23172;BME280;11754;42.664;23.594;2024-02-21T07:08:29;96116.81;;;9.47;68.99
23172;BME280;11754;42.664;23.594;2024-02-21T07:10:55;96109.78;;;9.75;67.53
23172;BME280;11754;42.664;23.594;2024-02-21T07:13:20;96106.69;;;9.79;67.12
23172;BME280;11754;42.664;23.594;2024-02-21T07:15:48;96117.78;;;10.10;65.13
23172;BME280;11754;42.664;23.594;2024-02-21T07:18:13;96111.97;;;9.79;65.44
23172;BME280;11754;42.664;23.594;2024-02-21T07:20:39;96114.13;;;10.21;65.27
23172;BME280;11754;42.664;23.594;2024-02-21T07:26:27;96113.19;;;10.58;62.67
23172;BME280;11754;42.664;23.594;2024-02-21T07:28:53;96117.13;;;10.54;62.61
23172;BME280;11754;42.664;23.594;2024-02-21T07:31:18;96107.78;;;9.86;65.31
23172;BME280;11754;42.664;23.594;2024-02-21T07:33:43;96114.69;;;9.87;64.91
23172;BME280;11754;42.664;23.594;2024-02-21T07:36:10;96113.88;;;8.83;68.27
23172;BME280;11754;42.664;23.594;2024-02-21T07:38:36;96106.28;;;10.02;66.90
23172;BME280;11754;42.664;23.594;2024-02-21T07:41:01;96113.53;;;10.45;64.37
23172;BME280;11754;42.664;23.594;2024-02-21T07:43:28;96104.00;;;11.06;62.64
23172;BME280;11754;42.664;23.594;2024-02-21T07:45:53;96102.47;;;11.73;60.80
23172;BME280;11754;42.664;23.594;2024-02-21T07:55:02;96100.69;;;12.24;56.20
23172;BME280;11754;42.664;23.594;2024-02-21T07:57:28;96098.13;;;13.14;54.76
23172;BME280;11754;42.664;23.594;2024-02-21T07:59:54;96098.09;;;14.11;52.71
23172;BME280;11754;42.664;23.594;2024-02-21T08:02:19;96103.84;;;14.46;51.84
23172;BME280;11754;42.664;23.594;2024-02-21T08:04:44;96102.22;;;14.76;49.66
23172;BME280;11754;42.664;23.594;2024-02-21T08:07:10;96091.81;;;15.12;48.32
23172;BME280;11754;42.664;23.594;2024-02-21T08:09:35;96099.19;;;13.85;51.82
23172;BME280;11754;42.664;23.594;2024-02-21T08:12:04;96089.00;;;15.43;49.24
23172;BME280;11754;42.664;23.594;2024-02-21T08:14:29;96083.69;;;16.32;46.51
23172;BME280;11754;42.664;23.594;2024-02-21T08:16:54;96090.81;;;16.83;44.40
23172;BME280;11754;42.664;23.594;2024-02-21T08:19:21;96078.81;;;15.84;45.90
23172;BME280;11754;42.664;23.594;2024-02-21T08:21:47;96095.34;;;16.46;44.51
23172;BME280;11754;42.664;23.594;2024-02-21T08:24:13;96083.63;;;16.62;44.15
23172;BME280;11754;42.664;23.594;2024-02-21T08:26:40;96085.75;;;17.93;41.39
23172;BME280;11754;42.664;23.594;2024-02-21T08:29:06;96075.59;;;17.75;39.93
23172;BME280;11754;42.664;23.594;2024-02-21T08:31:31;96076.94;;;17.93;40.79
23172;BME280;11754;42.664;23.594;2024-02-21T08:44:02;96082.72;;;17.68;41.04
23172;BME280;11754;42.664;23.594;2024-02-21T08:46:28;96083.72;;;17.11;40.32
23172;BME280;11754;42.664;23.594;2024-02-21T08:48:54;96080.09;;;16.76;41.66
23172;BME280;11754;42.664;23.594;2024-02-21T08:51:20;96078.59;;;18.00;40.20
23172;BME280;11754;42.664;23.594;2024-02-21T08:53:46;96080.13;;;18.78;38.01
23172;BME280;11754;42.664;23.594;2024-02-21T08:56:11;96077.97;;;17.64;38.62
23172;BME280;11754;42.664;23.594;2024-02-21T08:58:38;96076.44;;;18.85;38.95
23172;BME280;11754;42.664;23.594;2024-02-21T09:01:04;96061.56;;;20.09;36.66
23172;BME280;11754;42.664;23.594;2024-02-21T09:03:33;96070.88;;;20.45;35.54
23172;BME280;11754;42.664;23.594;2024-02-21T09:06:17;96066.53;;;22.62;31.61
23172;BME280;11754;42.664;23.594;2024-02-21T09:08:43;96058.72;;;24.55;29.48
23172;BME280;11754;42.664;23.594;2024-02-21T09:11:09;96049.69;;;26.74;27.18
23172;BME280;11754;42.664;23.594;2024-02-21T09:13:34;96054.56;;;25.38;26.62
23172;BME280;11754;42.664;23.594;2024-02-21T09:16:00;96053.19;;;23.98;28.28
23172;BME280;11754;42.664;23.594;2024-02-21T09:18:25;96058.94;;;23.90;29.36
23172;BME280;11754;42.664;23.594;2024-02-21T09:20:50;96062.09;;;25.53;27.66
23172;BME280;11754;42.664;23.594;2024-02-21T09:23:16;96057.16;;;25.84;26.16
23172;BME280;11754;42.664;23.594;2024-02-21T09:25:41;96059.91;;;23.72;26.87
23172;BME280;11754;42.664;23.594;2024-02-21T09:28:07;96068.22;;;22.26;29.11
23172;BME280;11754;42.664;23.594;2024-02-21T09:30:33;96057.53;;;23.87;27.92
23172;BME280;11754;42.664;23.594;2024-02-21T09:32:58;96046.06;;;25.01;26.48
23172;BME280;11754;42.664;23.594;2024-02-21T09:35:25;96045.59;;;23.83;28.07
23172;BME280;11754;42.664;23.594;2024-02-21T09:37:52;96050.88;;;25.28;26.21
23172;BME280;11754;42.664;23.594;2024-02-21T09:40:18;96060.84;;;22.70;28.61
23172;BME280;11754;42.664;23.594;2024-02-21T09:42:43;96058.13;;;22.03;29.88
23172;BME280;11754;42.664;23.594;2024-02-21T09:45:23;96067.81;;;18.83;34.38
23172;BME280;11754;42.664;23.594;2024-02-21T09:48:14;96071.34;;;18.29;35.84
23172;BME280;11754;42.664;23.594;2024-02-21T10:14:35;96020.72;;;28.91;21.74
23172;BME280;11754;42.664;23.594;2024-02-21T10:17:01;96027.16;;;30.38;21.00
23172;BME280;11754;42.664;23.594;2024-02-21T10:19:28;96004.06;;;34.01;16.86
23172;BME280;11754;42.664;23.594;2024-02-21T10:22:01;96006.88;;;33.31;17.19
23172;BME280;11754;42.664;23.594;2024-02-21T10:41:19;95968.75;;;37.47;14.31
23172;BME280;11754;42.664;23.594;2024-02-21T10:43:49;95972.44;;;29.09;19.15
23172;BME280;11754;42.664;23.594;2024-02-21T10:46:19;95966.31;;;30.04;18.12
23172;BME280;11754;42.664;23.594;2024-02-21T10:48:45;95953.84;;;34.83;15.87
23172;BME280;11754;42.664;23.594;2024-02-21T10:51:20;95952.19;;;38.71;13.00
23172;BME280;11754;42.664;23.594;2024-02-21T10:56:38;95942.38;;;38.32;13.16
23172;BME280;11754;42.664;23.594;2024-02-21T10:59:06;95934.75;;;38.29;12.87
23172;BME280;11754;42.664;23.594;2024-02-21T11:01:32;95934.84;;;37.73;13.00
23172;BME280;11754;42.664;23.594;2024-02-21T11:04:05;95928.47;;;36.82;13.35
23172;BME280;11754;42.664;23.594;2024-02-21T11:06:33;95922.16;;;37.89;13.18
23172;BME280;11754;42.664;23.594;2024-02-21T11:09:10;95916.41;;;38.41;12.44
23172;BME280;11754;42.664;23.594;2024-02-21T11:11:39;95912.81;;;39.46;11.96
23172;BME280;11754;42.664;23.594;2024-02-21T11:16:35;95901.28;;;40.78;10.84
23172;BME280;11754;42.664;23.594;2024-02-21T11:19:08;95906.31;;;39.29;11.64
23172;BME280;11754;42.664;23.594;2024-02-21T11:21:36;95899.78;;;40.04;11.01
23172;BME280;11754;42.664;23.594;2024-02-21T11:24:02;95898.25;;;36.91;13.12
23172;BME280;11754;42.664;23.594;2024-02-21T11:26:29;95903.69;;;36.39;12.58
23172;BME280;11754;42.664;23.594;2024-02-21T11:42:40;95877.84;;;33.29;14.57
23172;BME280;11754;42.664;23.594;2024-02-21T11:45:06;95876.69;;;33.02;14.75
23172;BME280;11754;42.664;23.594;2024-02-21T11:47:32;95867.94;;;35.33;13.21
23172;BME280;11754;42.664;23.594;2024-02-21T11:49:57;95868.13;;;33.55;14.40
23172;BME280;11754;42.664;23.594;2024-02-21T11:52:26;95863.34;;;31.63;15.79
23172;BME280;11754;42.664;23.594;2024-02-21T11:55:07;95859.34;;;32.93;14.93
23172;BME280;11754;42.664;23.594;2024-02-21T11:57:33;95854.56;;;33.17;14.90
23172;BME280;11754;42.664;23.594;2024-02-21T12:00:19;95861.66;;;28.65;18.77
23172;BME280;11754;42.664;23.594;2024-02-21T12:02:50;95857.53;;;32.13;15.93
23172;BME280;11754;42.664;23.594;2024-02-21T12:08:58;95848.31;;;32.09;16.14
23172;BME280;11754;42.664;23.594;2024-02-21T12:11:24;95846.06;;;30.91;16.95
23172;BME280;11754;42.664;23.594;2024-02-21T12:14:02;95846.25;;;30.31;17.22
23172;BME280;11754;42.664;23.594;2024-02-21T12:16:29;95866.97;;;21.21;25.15
23172;BME280;11754;42.664;23.594;2024-02-21T12:18:56;95858.13;;;18.53;29.37
23172;BME280;11754;42.664;23.594;2024-02-21T12:21:30;95869.09;;;16.31;32.97
23172;BME280;11754;42.664;23.594;2024-02-21T12:23:58;95857.22;;;15.84;34.24
23172;BME280;11754;42.664;23.594;2024-02-21T12:26:23;95850.47;;;19.09;30.52
23172;BME280;11754;42.664;23.594;2024-02-21T12:28:49;95859.38;;;21.00;26.82
23172;BME280;11754;42.664;23.594;2024-02-21T12:31:15;95867.13;;;17.85;30.91
23172;BME280;11754;42.664;23.594;2024-02-21T12:33:42;95864.91;;;17.47;31.08
23172;BME280;11754;42.664;23.594;2024-02-21T12:36:07;95854.84;;;18.51;29.42
23172;BME280;11754;42.664;23.594;2024-02-21T12:38:37;95847.41;;;18.92;28.54
23172;BME280;11754;42.664;23.594;2024-02-21T12:41:08;95846.84;;;18.11;31.13
23172;BME280;11754;42.664;23.594;2024-02-21T12:43:34;95842.78;;;17.53;32.54
23172;BME280;11754;42.664;23.594;2024-02-21T12:45:59;95831.59;;;17.23;33.06
23172;BME280;11754;42.664;23.594;2024-02-21T12:48:25;95852.09;;;17.23;33.56
23172;BME280;11754;42.664;23.594;2024-02-21T12:50:50;95842.25;;;17.17;33.45
23172;BME280;11754;42.664;23.594;2024-02-21T12:53:19;95842.28;;;16.61;33.91
23172;BME280;11754;42.664;23.594;2024-02-21T12:55:47;95837.13;;;15.81;34.82
23172;BME280;11754;42.664;23.594;2024-02-21T12:58:14;95848.63;;;15.31;35.86
23172;BME280;11754;42.664;23.594;2024-02-21T13:00:39;95842.09;;;15.48;35.65
23172;BME280;11754;42.664;23.594;2024-02-21T13:03:05;95842.41;;;15.24;35.96
23172;BME280;11754;42.664;23.594;2024-02-21T13:05:30;95847.53;;;15.25;36.41
23172;BME280;11754;42.664;23.594;2024-02-21T13:07:58;95843.38;;;15.01;37.11
23172;BME280;11754;42.664;23.594;2024-02-21T13:10:23;95840.25;;;14.98;37.04
23172;BME280;11754;42.664;23.594;2024-02-21T13:12:49;95838.34;;;14.77;36.74
23172;BME280;11754;42.664;23.594;2024-02-21T13:15:14;95832.00;;;14.63;37.49
23172;BME280;11754;42.664;23.594;2024-02-21T13:17:41;95833.47;;;14.80;36.92
23172;BME280;11754;42.664;23.594;2024-02-21T13:20:07;95826.53;;;14.27;38.34
23172;BME280;11754;42.664;23.594;2024-02-21T13:22:34;95835.25;;;13.20;43.19
23172;BME280;11754;42.664;23.594;2024-02-21T13:25:00;95831.09;;;13.26;44.29
23172;BME280;11754;42.664;23.594;2024-02-21T13:27:26;95837.34;;;13.33;44.03
23172;BME280;11754;42.664;23.594;2024-02-21T13:33:13;95840.25;;;13.24;45.17
23172;BME280;11754;42.664;23.594;2024-02-21T13:35:38;95835.84;;;13.39;44.62
23172;BME280;11754;42.664;23.594;2024-02-21T13:38:04;95834.38;;;13.59;44.28
23172;BME280;11754;42.664;23.594;2024-02-21T13:40:30;95830.13;;;13.50;44.91
23172;BME280;11754;42.664;23.594;2024-02-21T13:42:55;95834.13;;;13.69;44.29
23172;BME280;11754;42.664;23.594;2024-02-21T13:48:42;95840.50;;;13.83;44.30
23172;BME280;11754;42.664;23.594;2024-02-21T13:51:07;95830.59;;;13.77;45.02
23172;BME280;11754;42.664;23.594;2024-02-21T13:53:33;95831.06;;;14.03;44.50
23172;BME280;11754;42.664;23.594;2024-02-21T13:55:59;95830.56;;;14.23;44.48
23172;BME280;11754;42.664;23.594;2024-02-21T14:01:48;95823.91;;;13.89;43.95
23172;BME280;11754;42.664;23.594;2024-02-21T14:04:13;95829.94;;;14.35;43.20
23172;BME280;11754;42.664;23.594;2024-02-21T14:06:39;95834.34;;;14.28;42.53
23172;BME280;11754;42.664;23.594;2024-02-21T14:09:12;95818.31;;;14.22;42.59
23172;BME280;11754;42.664;23.594;2024-02-21T14:11:37;95824.41;;;14.75;42.12
23172;BME280;11754;42.664;23.594;2024-02-21T14:14:04;95814.16;;;15.74;40.30
23172;BME280;11754;42.664;23.594;2024-02-21T14:16:29;95818.19;;;17.03;37.59
23172;BME280;11754;42.664;23.594;2024-02-21T14:18:55;95822.00;;;15.46;39.32
23172;BME280;11754;42.664;23.594;2024-02-21T14:21:20;95819.84;;;15.71;38.84
23172;BME280;11754;42.664;23.594;2024-02-21T14:30:29;95822.22;;;16.65;37.34
23172;BME280;11754;42.664;23.594;2024-02-21T14:32:54;95813.41;;;16.92;36.81
23172;BME280;11754;42.664;23.594;2024-02-21T14:35:20;95817.41;;;16.19;37.70
23172;BME280;11754;42.664;23.594;2024-02-21T14:37:45;95821.81;;;16.05;37.94
23172;BME280;11754;42.664;23.594;2024-02-21T14:40:11;95806.44;;;16.28;37.14
23172;BME280;11754;42.664;23.594;2024-02-21T14:42:37;95818.06;;;15.99;37.75
23172;BME280;11754;42.664;23.594;2024-02-21T14:45:03;95819.09;;;15.77;38.11
23172;BME280;11754;42.664;23.594;2024-02-21T14:47:32;95817.59;;;15.17;39.14
23172;BME280;11754;42.664;23.594;2024-02-21T14:49:58;95824.59;;;14.58;40.45
23172;BME280;11754;42.664;23.594;2024-02-21T15:13:49;95823.59;;;12.98;43.97
23172;BME280;11754;42.664;23.594;2024-02-21T15:16:14;95819.19;;;12.83;44.33
23172;BME280;11754;42.664;23.594;2024-02-21T15:18:41;95817.28;;;12.60;44.86
23172;BME280;11754;42.664;23.594;2024-02-21T15:21:07;95817.81;;;12.47;45.55
23172;BME280;11754;42.664;23.594;2024-02-21T15:23:32;95817.69;;;12.41;45.60
23172;BME280;11754;42.664;23.594;2024-02-21T15:25:58;95818.66;;;12.48;45.96
23172;BME280;11754;42.664;23.594;2024-02-21T15:28:25;95816.75;;;12.01;46.98
23172;BME280;11754;42.664;23.594;2024-02-21T15:30:53;95813.31;;;11.01;49.86
23172;BME280;11754;42.664;23.594;2024-02-21T15:33:19;95825.56;;;10.68;51.04
23172;BME280;11754;42.664;23.594;2024-02-21T15:39:06;95832.09;;;10.55;53.43
23172;BME280;11754;42.664;23.594;2024-02-21T15:41:33;95841.47;;;10.50;53.98
23172;BME280;11754;42.664;23.594;2024-02-21T15:43:59;95834.78;;;9.94;55.97
23172;BME280;11754;42.664;23.594;2024-02-21T15:46:25;95835.06;;;9.65;57.25
23172;BME280;11754;42.664;23.594;2024-02-21T15:48:50;95836.34;;;9.43;57.64
23172;BME280;11754;42.664;23.594;2024-02-21T15:51:19;95841.44;;;9.26;58.49
23172;BME280;11754;42.664;23.594;2024-02-21T15:53:45;95844.53;;;9.22;59.13
23172;BME280;11754;42.664;23.594;2024-02-21T15:56:11;95838.25;;;9.05;59.22
23172;BME280;11754;42.664;23.594;2024-02-21T15:58:39;95852.63;;;9.10;59.55
23172;BME280;11754;42.664;23.594;2024-02-21T16:01:04;95854.03;;;9.05;60.07